sensor_id;sensor_type;location;lat;lon;timestamp;P1;durP1;ratioP1;P2;durP2;ratioP2
62543;SDS011;48597;49.030;1.822;2023-01-04T00:00:28;1.88;;;0.90;;
62543;SDS011;48597;49.030;1.822;2023-01-04T00:02:54;2.17;;;1.05;;
62543;SDS011;48597;49.030;1.822;2023-01-04T00:05:19;2.15;;;1.10;;
62543;SDS011;48597;49.030;1.822;2023-01-04T00:07:44;1.55;;;1.00;;
62543;SDS011;48597;49.030;1.822;2023-01-04T00:10:10;1.10;;;0.90;;
62543;SDS011;48597;49.030;1.822;2023-01-04T00:12:35;1.20;;;0.90;;
62543;SDS011;48597;49.030;1.822;2023-01-04T00:15:00;1.55;;;0.90;;
62543;SDS011;48597;49.030;1.822;2023-01-04T00:17:26;1.50;;;0.90;;
62543;SDS011;48597;49.030;1.822;2023-01-04T00:19:51;1.40;;;0.93;;
62543;SDS011;48597;49.030;1.822;2023-01-04T00:22:17;1.65;;;0.93;;
62543;SDS011;48597;49.030;1.822;2023-01-04T00:24:42;1.45;;;1.00;;
62543;SDS011;48597;49.030;1.822;2023-01-04T00:27:07;1.20;;;0.90;;
62543;SDS011;48597;49.030;1.822;2023-01-04T00:29:33;1.00;;;0.90;;
62543;SDS011;48597;49.030;1.822;2023-01-04T00:31:59;1.45;;;0.80;;
62543;SDS011;48597;49.030;1.822;2023-01-04T00:34:24;1.33;;;1.00;;
62543;SDS011;48597;49.030;1.822;2023-01-04T00:36:50;1.48;;;0.88;;
62543;SDS011;48597;49.030;1.822;2023-01-04T00:39:15;1.30;;;0.93;;
62543;SDS011;48597;49.030;1.822;2023-01-04T00:41:48;0.75;;;0.70;;
62543;SDS011;48597;49.030;1.822;2023-01-04T00:44:15;1.77;;;1.08;;
62543;SDS011;48597;49.030;1.822;2023-01-04T00:46:41;1.10;;;0.90;;
62543;SDS011;48597;49.030;1.822;2023-01-04T00:49:07;1.50;;;0.82;;
62543;SDS011;48597;49.030;1.822;2023-01-04T00:51:35;1.75;;;0.80;;
62543;SDS011;48597;49.030;1.822;2023-01-04T00:54:03;1.15;;;0.80;;
62543;SDS011;48597;49.030;1.822;2023-01-04T00:56:30;1.10;;;0.70;;
62543;SDS011;48597;49.030;1.822;2023-01-04T00:58:57;1.90;;;0.90;;
62543;SDS011;48597;49.030;1.822;2023-01-04T01:01:25;1.02;;;0.80;;
62543;SDS011;48597;49.030;1.822;2023-01-04T01:03:55;0.95;;;0.80;;
62543;SDS011;48597;49.030;1.822;2023-01-04T01:06:22;0.90;;;0.90;;
62543;SDS011;48597;49.030;1.822;2023-01-04T01:08:49;1.55;;;0.80;;
62543;SDS011;48597;49.030;1.822;2023-01-04T01:11:14;1.35;;;0.88;;
62543;SDS011;48597;49.030;1.822;2023-01-04T01:13:40;1.05;;;0.73;;
62543;SDS011;48597;49.030;1.822;2023-01-04T01:16:10;0.70;;;0.60;;
62543;SDS011;48597;49.030;1.822;2023-01-04T01:18:38;0.73;;;0.73;;
62543;SDS011;48597;49.030;1.822;2023-01-04T01:21:09;1.05;;;0.80;;
62543;SDS011;48597;49.030;1.822;2023-01-04T01:23:36;1.17;;;0.77;;
62543;SDS011;48597;49.030;1.822;2023-01-04T01:26:02;1.15;;;0.77;;
62543;SDS011;48597;49.030;1.822;2023-01-04T01:28:30;0.60;;;0.60;;
62543;SDS011;48597;49.030;1.822;2023-01-04T01:30:57;1.65;;;0.82;;
62543;SDS011;48597;49.030;1.822;2023-01-04T01:33:24;0.75;;;0.75;;
62543;SDS011;48597;49.030;1.822;2023-01-04T01:35:50;1.35;;;0.70;;
62543;SDS011;48597;49.030;1.822;2023-01-04T01:38:16;1.45;;;0.77;;
62543;SDS011;48597;49.030;1.822;2023-01-04T01:40:41;0.70;;;0.60;;
62543;SDS011;48597;49.030;1.822;2023-01-04T01:46:14;0.60;;;0.60;;
62543;SDS011;48597;49.030;1.822;2023-01-04T01:48:42;0.75;;;0.70;;
62543;SDS011;48597;49.030;1.822;2023-01-04T01:51:07;0.80;;;0.60;;
62543;SDS011;48597;49.030;1.822;2023-01-04T01:53:35;0.80;;;0.60;;
62543;SDS011;48597;49.030;1.822;2023-01-04T01:56:05;0.90;;;0.73;;
62543;SDS011;48597;49.030;1.822;2023-01-04T01:58:43;0.68;;;0.57;;
62543;SDS011;48597;49.030;1.822;2023-01-04T02:01:13;0.75;;;0.70;;
62543;SDS011;48597;49.030;1.822;2023-01-04T02:03:40;1.38;;;0.70;;
62543;SDS011;48597;49.030;1.822;2023-01-04T02:06:18;0.90;;;0.50;;
62543;SDS011;48597;49.030;1.822;2023-01-04T02:08:46;1.02;;;0.70;;
62543;SDS011;48597;49.030;1.822;2023-01-04T02:11:13;1.05;;;0.70;;
62543;SDS011;48597;49.030;1.822;2023-01-04T02:13:38;0.57;;;0.50;;
62543;SDS011;48597;49.030;1.822;2023-01-04T02:30:58;1.42;;;0.80;;
62543;SDS011;48597;49.030;1.822;2023-01-04T02:33:50;1.13;;;0.60;;
62543;SDS011;48597;49.030;1.822;2023-01-04T02:39:11;1.30;;;0.68;;
62543;SDS011;48597;49.030;1.822;2023-01-04T02:44:31;1.10;;;0.50;;
62543;SDS011;48597;49.030;1.822;2023-01-04T02:47:18;0.60;;;0.60;;
62543;SDS011;48597;49.030;1.822;2023-01-04T02:55:24;0.55;;;0.50;;
62543;SDS011;48597;49.030;1.822;2023-01-04T02:58:06;0.63;;;0.45;;
62543;SDS011;48597;49.030;1.822;2023-01-04T03:00:57;0.98;;;0.57;;
62543;SDS011;48597;49.030;1.822;2023-01-04T03:04:04;0.77;;;0.60;;
62543;SDS011;48597;49.030;1.822;2023-01-04T03:06:57;0.40;;;0.40;;
62543;SDS011;48597;49.030;1.822;2023-01-04T03:09:35;0.50;;;0.50;;
62543;SDS011;48597;49.030;1.822;2023-01-04T03:12:07;0.45;;;0.45;;
62543;SDS011;48597;49.030;1.822;2023-01-04T03:15:00;0.63;;;0.60;;
62543;SDS011;48597;49.030;1.822;2023-01-04T03:17:27;0.60;;;0.47;;
62543;SDS011;48597;49.030;1.822;2023-01-04T03:19:57;0.60;;;0.50;;
62543;SDS011;48597;49.030;1.822;2023-01-04T03:25:23;0.40;;;0.40;;
62543;SDS011;48597;49.030;1.822;2023-01-04T03:28:10;0.40;;;0.40;;
62543;SDS011;48597;49.030;1.822;2023-01-04T03:30:59;0.50;;;0.50;;
62543;SDS011;48597;49.030;1.822;2023-01-04T03:33:54;0.52;;;0.50;;
62543;SDS011;48597;49.030;1.822;2023-01-04T03:36:42;0.40;;;0.40;;
62543;SDS011;48597;49.030;1.822;2023-01-04T03:42:15;0.45;;;0.45;;
62543;SDS011;48597;49.030;1.822;2023-01-04T03:45:21;1.38;;;0.60;;
62543;SDS011;48597;49.030;1.822;2023-01-04T03:51:06;1.15;;;0.43;;
62543;SDS011;48597;49.030;1.822;2023-01-04T03:53:49;0.50;;;0.50;;
62543;SDS011;48597;49.030;1.822;2023-01-04T03:56:21;0.68;;;0.57;;
62543;SDS011;48597;49.030;1.822;2023-01-04T03:58:49;0.50;;;0.50;;
62543;SDS011;48597;49.030;1.822;2023-01-04T04:01:17;0.50;;;0.40;;
62543;SDS011;48597;49.030;1.822;2023-01-04T04:03:43;0.65;;;0.40;;
62543;SDS011;48597;49.030;1.822;2023-01-04T04:06:27;0.93;;;0.50;;
62543;SDS011;48597;49.030;1.822;2023-01-04T04:09:11;0.40;;;0.40;;
62543;SDS011;48597;49.030;1.822;2023-01-04T04:11:36;0.50;;;0.50;;
62543;SDS011;48597;49.030;1.822;2023-01-04T04:14:02;0.73;;;0.52;;
62543;SDS011;48597;49.030;1.822;2023-01-04T04:16:27;1.17;;;0.60;;
62543;SDS011;48597;49.030;1.822;2023-01-04T04:18:53;0.40;;;0.40;;
62543;SDS011;48597;49.030;1.822;2023-01-04T04:21:18;0.50;;;0.50;;
62543;SDS011;48597;49.030;1.822;2023-01-04T04:23:44;0.60;;;0.47;;
62543;SDS011;48597;49.030;1.822;2023-01-04T04:26:09;0.50;;;0.40;;
62543;SDS011;48597;49.030;1.822;2023-01-04T04:28:35;0.50;;;0.50;;
62543;SDS011;48597;49.030;1.822;2023-01-04T04:31:00;0.40;;;0.40;;
62543;SDS011;48597;49.030;1.822;2023-01-04T04:33:25;0.38;;;0.38;;
62543;SDS011;48597;49.030;1.822;2023-01-04T04:35:52;0.68;;;0.40;;
62543;SDS011;48597;49.030;1.822;2023-01-04T04:38:19;0.40;;;0.40;;
62543;SDS011;48597;49.030;1.822;2023-01-04T04:40:45;0.60;;;0.40;;
62543;SDS011;48597;49.030;1.822;2023-01-04T04:43:29;0.40;;;0.40;;
62543;SDS011;48597;49.030;1.822;2023-01-04T04:45:54;0.63;;;0.47;;
62543;SDS011;48597;49.030;1.822;2023-01-04T04:48:20;0.57;;;0.40;;
62543;SDS011;48597;49.030;1.822;2023-01-04T04:50:46;0.30;;;0.30;;
62543;SDS011;48597;49.030;1.822;2023-01-04T04:53:11;0.98;;;0.45;;
62543;SDS011;48597;49.030;1.822;2023-01-04T04:55:37;0.45;;;0.30;;
62543;SDS011;48597;49.030;1.822;2023-01-04T04:58:02;0.40;;;0.40;;
62543;SDS011;48597;49.030;1.822;2023-01-04T05:00:27;0.40;;;0.40;;
62543;SDS011;48597;49.030;1.822;2023-01-04T05:02:53;0.30;;;0.30;;
62543;SDS011;48597;49.030;1.822;2023-01-04T05:05:18;0.35;;;0.25;;
62543;SDS011;48597;49.030;1.822;2023-01-04T05:07:43;0.30;;;0.30;;
62543;SDS011;48597;49.030;1.822;2023-01-04T05:10:09;0.38;;;0.38;;
62543;SDS011;48597;49.030;1.822;2023-01-04T05:12:34;1.27;;;0.40;;
62543;SDS011;48597;49.030;1.822;2023-01-04T05:15:18;1.38;;;0.60;;
62543;SDS011;48597;49.030;1.822;2023-01-04T05:17:44;0.20;;;0.20;;
62543;SDS011;48597;49.030;1.822;2023-01-04T05:20:09;0.80;;;0.45;;
62543;SDS011;48597;49.030;1.822;2023-01-04T05:22:35;0.43;;;0.43;;
62543;SDS011;48597;49.030;1.822;2023-01-04T05:25:00;0.40;;;0.40;;
62543;SDS011;48597;49.030;1.822;2023-01-04T05:27:26;0.68;;;0.40;;
62543;SDS011;48597;49.030;1.822;2023-01-04T05:29:51;0.40;;;0.40;;
62543;SDS011;48597;49.030;1.822;2023-01-04T05:32:35;0.38;;;0.38;;
62543;SDS011;48597;49.030;1.822;2023-01-04T05:35:00;0.90;;;0.40;;
62543;SDS011;48597;49.030;1.822;2023-01-04T05:37:26;0.32;;;0.32;;
62543;SDS011;48597;49.030;1.822;2023-01-04T05:39:51;0.30;;;0.30;;
62543;SDS011;48597;49.030;1.822;2023-01-04T05:42:16;0.55;;;0.40;;
62543;SDS011;48597;49.030;1.822;2023-01-04T05:44:52;0.40;;;0.40;;
62543;SDS011;48597;49.030;1.822;2023-01-04T05:47:19;0.47;;;0.43;;
62543;SDS011;48597;49.030;1.822;2023-01-04T05:49:44;0.32;;;0.32;;
62543;SDS011;48597;49.030;1.822;2023-01-04T05:52:10;0.35;;;0.35;;
62543;SDS011;48597;49.030;1.822;2023-01-04T05:54:35;0.30;;;0.30;;
62543;SDS011;48597;49.030;1.822;2023-01-04T05:57:01;0.47;;;0.40;;
62543;SDS011;48597;49.030;1.822;2023-01-04T05:59:26;0.20;;;0.20;;
62543;SDS011;48597;49.030;1.822;2023-01-04T06:01:51;0.40;;;0.40;;
62543;SDS011;48597;49.030;1.822;2023-01-04T06:04:17;0.40;;;0.40;;
62543;SDS011;48597;49.030;1.822;2023-01-04T06:06:42;0.40;;;0.40;;
62543;SDS011;48597;49.030;1.822;2023-01-04T06:09:07;0.32;;;0.32;;
62543;SDS011;48597;49.030;1.822;2023-01-04T06:11:33;0.40;;;0.30;;
62543;SDS011;48597;49.030;1.822;2023-01-04T06:13:58;0.32;;;0.32;;
62543;SDS011;48597;49.030;1.822;2023-01-04T06:16:24;1.33;;;0.40;;
62543;SDS011;48597;49.030;1.822;2023-01-04T06:18:49;0.52;;;0.40;;
62543;SDS011;48597;49.030;1.822;2023-01-04T06:21:14;0.35;;;0.35;;
62543;SDS011;48597;49.030;1.822;2023-01-04T06:23:40;0.57;;;0.38;;
62543;SDS011;48597;49.030;1.822;2023-01-04T06:26:05;0.32;;;0.30;;
62543;SDS011;48597;49.030;1.822;2023-01-04T06:28:30;0.22;;;0.22;;
62543;SDS011;48597;49.030;1.822;2023-01-04T06:30:56;0.40;;;0.40;;
62543;SDS011;48597;49.030;1.822;2023-01-04T06:33:21;0.60;;;0.43;;
62543;SDS011;48597;49.030;1.822;2023-01-04T06:35:53;0.40;;;0.30;;
62543;SDS011;48597;49.030;1.822;2023-01-04T06:38:19;0.30;;;0.30;;
62543;SDS011;48597;49.030;1.822;2023-01-04T06:40:45;0.30;;;0.30;;
62543;SDS011;48597;49.030;1.822;2023-01-04T06:43:10;0.40;;;0.30;;
62543;SDS011;48597;49.030;1.822;2023-01-04T06:45:35;0.55;;;0.55;;
62543;SDS011;48597;49.030;1.822;2023-01-04T06:48:01;0.20;;;0.20;;
62543;SDS011;48597;49.030;1.822;2023-01-04T06:50:26;0.50;;;0.38;;
62543;SDS011;48597;49.030;1.822;2023-01-04T06:52:51;0.30;;;0.30;;
62543;SDS011;48597;49.030;1.822;2023-01-04T06:55:17;0.73;;;0.40;;
62543;SDS011;48597;49.030;1.822;2023-01-04T06:57:42;0.28;;;0.28;;
62543;SDS011;48597;49.030;1.822;2023-01-04T07:00:08;0.52;;;0.43;;
62543;SDS011;48597;49.030;1.822;2023-01-04T07:02:34;0.25;;;0.25;;
62543;SDS011;48597;49.030;1.822;2023-01-04T07:05:00;0.30;;;0.30;;
62543;SDS011;48597;49.030;1.822;2023-01-04T07:07:25;0.45;;;0.45;;
62543;SDS011;48597;49.030;1.822;2023-01-04T07:09:51;0.30;;;0.30;;
62543;SDS011;48597;49.030;1.822;2023-01-04T07:12:16;0.20;;;0.20;;
62543;SDS011;48597;49.030;1.822;2023-01-04T07:14:42;0.40;;;0.40;;
62543;SDS011;48597;49.030;1.822;2023-01-04T07:17:07;0.30;;;0.30;;
62543;SDS011;48597;49.030;1.822;2023-01-04T07:19:32;0.50;;;0.40;;
62543;SDS011;48597;49.030;1.822;2023-01-04T07:21:58;0.40;;;0.40;;
62543;SDS011;48597;49.030;1.822;2023-01-04T07:24:24;0.30;;;0.30;;
62543;SDS011;48597;49.030;1.822;2023-01-04T07:26:50;0.30;;;0.30;;
62543;SDS011;48597;49.030;1.822;2023-01-04T07:29:15;0.28;;;0.28;;
62543;SDS011;48597;49.030;1.822;2023-01-04T07:31:44;0.60;;;0.60;;
62543;SDS011;48597;49.030;1.822;2023-01-04T07:34:11;0.40;;;0.40;;
62543;SDS011;48597;49.030;1.822;2023-01-04T07:36:38;0.30;;;0.30;;
62543;SDS011;48597;49.030;1.822;2023-01-04T07:39:04;0.73;;;0.40;;
62543;SDS011;48597;49.030;1.822;2023-01-04T07:41:30;0.77;;;0.40;;
62543;SDS011;48597;49.030;1.822;2023-01-04T07:43:56;0.45;;;0.40;;
62543;SDS011;48597;49.030;1.822;2023-01-04T07:46:21;0.30;;;0.30;;
62543;SDS011;48597;49.030;1.822;2023-01-04T07:48:46;0.30;;;0.30;;
62543;SDS011;48597;49.030;1.822;2023-01-04T07:51:12;0.35;;;0.30;;
62543;SDS011;48597;49.030;1.822;2023-01-04T07:53:37;0.82;;;0.30;;
62543;SDS011;48597;49.030;1.822;2023-01-04T07:56:02;0.38;;;0.38;;
62543;SDS011;48597;49.030;1.822;2023-01-04T07:58:31;0.73;;;0.40;;
62543;SDS011;48597;49.030;1.822;2023-01-04T08:01:07;0.45;;;0.40;;
62543;SDS011;48597;49.030;1.822;2023-01-04T08:03:34;0.52;;;0.40;;
62543;SDS011;48597;49.030;1.822;2023-01-04T08:06:06;0.38;;;0.38;;
62543;SDS011;48597;49.030;1.822;2023-01-04T08:08:33;0.32;;;0.32;;
62543;SDS011;48597;49.030;1.822;2023-01-04T08:11:02;0.43;;;0.30;;
62543;SDS011;48597;49.030;1.822;2023-01-04T08:13:29;0.30;;;0.30;;
62543;SDS011;48597;49.030;1.822;2023-01-04T08:15:54;0.32;;;0.30;;
62543;SDS011;48597;49.030;1.822;2023-01-04T08:18:20;0.68;;;0.30;;
62543;SDS011;48597;49.030;1.822;2023-01-04T08:20:46;0.28;;;0.22;;
62543;SDS011;48597;49.030;1.822;2023-01-04T08:23:12;0.40;;;0.40;;
62543;SDS011;48597;49.030;1.822;2023-01-04T08:25:37;0.57;;;0.30;;
62543;SDS011;48597;49.030;1.822;2023-01-04T08:28:02;0.35;;;0.35;;
62543;SDS011;48597;49.030;1.822;2023-01-04T08:30:28;0.52;;;0.30;;
62543;SDS011;48597;49.030;1.822;2023-01-04T08:32:53;0.35;;;0.35;;
62543;SDS011;48597;49.030;1.822;2023-01-04T08:35:19;0.63;;;0.40;;
62543;SDS011;48597;49.030;1.822;2023-01-04T08:37:45;0.50;;;0.40;;
62543;SDS011;48597;49.030;1.822;2023-01-04T08:40:10;0.30;;;0.30;;
62543;SDS011;48597;49.030;1.822;2023-01-04T08:42:36;0.40;;;0.40;;
62543;SDS011;48597;49.030;1.822;2023-01-04T08:45:02;1.00;;;0.40;;
62543;SDS011;48597;49.030;1.822;2023-01-04T08:47:28;0.65;;;0.40;;
62543;SDS011;48597;49.030;1.822;2023-01-04T08:49:55;0.30;;;0.30;;
62543;SDS011;48597;49.030;1.822;2023-01-04T08:52:22;0.77;;;0.40;;
62543;SDS011;48597;49.030;1.822;2023-01-04T08:54:47;0.70;;;0.40;;
62543;SDS011;48597;49.030;1.822;2023-01-04T08:57:13;0.40;;;0.40;;
62543;SDS011;48597;49.030;1.822;2023-01-04T08:59:41;0.43;;;0.40;;
62543;SDS011;48597;49.030;1.822;2023-01-04T09:02:18;0.90;;;0.50;;
62543;SDS011;48597;49.030;1.822;2023-01-04T09:04:46;0.45;;;0.40;;
62543;SDS011;48597;49.030;1.822;2023-01-04T09:07:12;0.70;;;0.30;;
62543;SDS011;48597;49.030;1.822;2023-01-04T09:09:37;0.93;;;0.40;;
62543;SDS011;48597;49.030;1.822;2023-01-04T09:12:03;0.68;;;0.55;;
62543;SDS011;48597;49.030;1.822;2023-01-04T09:14:28;1.08;;;0.43;;
62543;SDS011;48597;49.030;1.822;2023-01-04T09:16:53;0.28;;;0.28;;
62543;SDS011;48597;49.030;1.822;2023-01-04T09:19:19;0.47;;;0.47;;
62543;SDS011;48597;49.030;1.822;2023-01-04T09:21:44;1.17;;;0.40;;
62543;SDS011;48597;49.030;1.822;2023-01-04T09:24:10;0.60;;;0.40;;
62543;SDS011;48597;49.030;1.822;2023-01-04T09:26:35;1.23;;;0.57;;
62543;SDS011;48597;49.030;1.822;2023-01-04T09:29:00;1.65;;;0.50;;
62543;SDS011;48597;49.030;1.822;2023-01-04T09:31:27;0.95;;;0.52;;
62543;SDS011;48597;49.030;1.822;2023-01-04T09:33:53;0.32;;;0.32;;
62543;SDS011;48597;49.030;1.822;2023-01-04T09:36:20;0.60;;;0.40;;
62543;SDS011;48597;49.030;1.822;2023-01-04T09:38:47;1.30;;;0.50;;
62543;SDS011;48597;49.030;1.822;2023-01-04T09:43:44;1.63;;;0.70;;
62543;SDS011;48597;49.030;1.822;2023-01-04T09:46:56;0.95;;;0.40;;
62543;SDS011;48597;49.030;1.822;2023-01-04T09:51:41;0.70;;;0.40;;
62543;SDS011;48597;49.030;1.822;2023-01-04T09:54:13;1.88;;;0.43;;
62543;SDS011;48597;49.030;1.822;2023-01-04T09:56:54;2.45;;;0.60;;
62543;SDS011;48597;49.030;1.822;2023-01-04T09:59:29;1.33;;;0.57;;
62543;SDS011;48597;49.030;1.822;2023-01-04T10:04:30;0.50;;;0.40;;
62543;SDS011;48597;49.030;1.822;2023-01-04T10:07:07;1.70;;;0.82;;
62543;SDS011;48597;49.030;1.822;2023-01-04T10:09:41;1.17;;;0.65;;
62543;SDS011;48597;49.030;1.822;2023-01-04T10:17:28;6.38;;;0.75;;
62543;SDS011;48597;49.030;1.822;2023-01-04T10:30:53;1.73;;;0.90;;
62543;SDS011;48597;49.030;1.822;2023-01-04T10:36:26;0.93;;;0.73;;
62543;SDS011;48597;49.030;1.822;2023-01-04T10:38:59;1.10;;;0.60;;
62543;SDS011;48597;49.030;1.822;2023-01-04T10:41:33;0.88;;;0.63;;
62543;SDS011;48597;49.030;1.822;2023-01-04T10:49:19;2.22;;;1.00;;
62543;SDS011;48597;49.030;1.822;2023-01-04T10:52:00;0.98;;;0.70;;
62543;SDS011;48597;49.030;1.822;2023-01-04T10:54:35;0.80;;;0.63;;
62543;SDS011;48597;49.030;1.822;2023-01-04T10:57:11;1.80;;;0.60;;
62543;SDS011;48597;49.030;1.822;2023-01-04T10:59:50;2.03;;;0.68;;
62543;SDS011;48597;49.030;1.822;2023-01-04T11:05:12;0.82;;;0.70;;
62543;SDS011;48597;49.030;1.822;2023-01-04T11:07:52;1.60;;;0.70;;
62543;SDS011;48597;49.030;1.822;2023-01-04T11:10:27;1.73;;;1.08;;
62543;SDS011;48597;49.030;1.822;2023-01-04T11:12:54;2.33;;;0.90;;
62543;SDS011;48597;49.030;1.822;2023-01-04T11:15:19;1.35;;;0.70;;
62543;SDS011;48597;49.030;1.822;2023-01-04T11:17:45;1.40;;;0.63;;
62543;SDS011;48597;49.030;1.822;2023-01-04T11:20:12;1.83;;;0.90;;
62543;SDS011;48597;49.030;1.822;2023-01-04T11:22:51;1.15;;;0.63;;
62543;SDS011;48597;49.030;1.822;2023-01-04T11:25:22;1.05;;;0.55;;
62543;SDS011;48597;49.030;1.822;2023-01-04T11:28:35;2.53;;;0.70;;
62543;SDS011;48597;49.030;1.822;2023-01-04T11:30:45;2.35;;;0.70;;
62543;SDS011;48597;49.030;1.822;2023-01-04T11:33:17;2.97;;;0.90;;
62543;SDS011;48597;49.030;1.822;2023-01-04T11:35:45;6.40;;;1.00;;
62543;SDS011;48597;49.030;1.822;2023-01-04T11:38:27;2.25;;;0.80;;
62543;SDS011;48597;49.030;1.822;2023-01-04T11:43:30;2.58;;;0.70;;
62543;SDS011;48597;49.030;1.822;2023-01-04T11:48:32;2.05;;;1.02;;
62543;SDS011;48597;49.030;1.822;2023-01-04T11:53:59;3.58;;;0.88;;
62543;SDS011;48597;49.030;1.822;2023-01-04T11:56:37;2.63;;;0.70;;
62543;SDS011;48597;49.030;1.822;2023-01-04T12:01:33;2.75;;;0.90;;
62543;SDS011;48597;49.030;1.822;2023-01-04T12:06:50;2.40;;;0.95;;
62543;SDS011;48597;49.030;1.822;2023-01-04T12:09:19;1.48;;;0.70;;
62543;SDS011;48597;49.030;1.822;2023-01-04T12:11:49;3.80;;;0.93;;
62543;SDS011;48597;49.030;1.822;2023-01-04T12:14:29;1.23;;;0.70;;
62543;SDS011;48597;49.030;1.822;2023-01-04T12:19:36;3.50;;;0.90;;
62543;SDS011;48597;49.030;1.822;2023-01-04T12:22:11;3.13;;;0.60;;
62543;SDS011;48597;49.030;1.822;2023-01-04T12:24:50;5.18;;;0.80;;
62543;SDS011;48597;49.030;1.822;2023-01-04T12:27:17;1.77;;;0.80;;
62543;SDS011;48597;49.030;1.822;2023-01-04T12:29:44;3.15;;;0.82;;
62543;SDS011;48597;49.030;1.822;2023-01-04T12:34:44;3.05;;;0.70;;
62543;SDS011;48597;49.030;1.822;2023-01-04T12:40:02;1.55;;;1.00;;
62543;SDS011;48597;49.030;1.822;2023-01-04T12:45:41;1.48;;;0.75;;
62543;SDS011;48597;49.030;1.822;2023-01-04T12:51:17;1.52;;;0.60;;
62543;SDS011;48597;49.030;1.822;2023-01-04T12:53:49;3.65;;;0.90;;
62543;SDS011;48597;49.030;1.822;2023-01-04T12:59:33;2.38;;;0.57;;
62543;SDS011;48597;49.030;1.822;2023-01-04T13:04:42;1.58;;;0.80;;
62543;SDS011;48597;49.030;1.822;2023-01-04T13:07:09;2.20;;;0.95;;
62543;SDS011;48597;49.030;1.822;2023-01-04T13:09:40;1.85;;;0.80;;
62543;SDS011;48597;49.030;1.822;2023-01-04T13:12:14;1.63;;;0.65;;
62543;SDS011;48597;49.030;1.822;2023-01-04T13:14:48;0.75;;;0.60;;
62543;SDS011;48597;49.030;1.822;2023-01-04T13:17:17;1.40;;;0.77;;
62543;SDS011;48597;49.030;1.822;2023-01-04T13:19:45;1.58;;;0.70;;
62543;SDS011;48597;49.030;1.822;2023-01-04T13:22:15;1.20;;;0.60;;
62543;SDS011;48597;49.030;1.822;2023-01-04T13:24:43;0.93;;;0.50;;
62543;SDS011;48597;49.030;1.822;2023-01-04T13:27:15;2.15;;;0.80;;
62543;SDS011;48597;49.030;1.822;2023-01-04T13:29:45;1.38;;;0.63;;
62543;SDS011;48597;49.030;1.822;2023-01-04T13:32:12;1.52;;;0.63;;
62543;SDS011;48597;49.030;1.822;2023-01-04T13:38:13;1.95;;;0.90;;
62543;SDS011;48597;49.030;1.822;2023-01-04T13:40:43;0.55;;;0.40;;
62543;SDS011;48597;49.030;1.822;2023-01-04T13:48:13;1.45;;;0.80;;
62543;SDS011;48597;49.030;1.822;2023-01-04T13:50:56;1.40;;;0.70;;
62543;SDS011;48597;49.030;1.822;2023-01-04T13:53:25;0.90;;;0.60;;
62543;SDS011;48597;49.030;1.822;2023-01-04T13:55:55;1.20;;;0.60;;
62543;SDS011;48597;49.030;1.822;2023-01-04T13:58:23;1.50;;;0.57;;
62543;SDS011;48597;49.030;1.822;2023-01-04T14:01:04;0.95;;;0.50;;
62543;SDS011;48597;49.030;1.822;2023-01-04T14:06:17;1.88;;;0.60;;
62543;SDS011;48597;49.030;1.822;2023-01-04T14:09:06;1.10;;;0.50;;
62543;SDS011;48597;49.030;1.822;2023-01-04T14:22:23;1.40;;;0.60;;
62543;SDS011;48597;49.030;1.822;2023-01-04T14:24:52;0.77;;;0.50;;
62543;SDS011;48597;49.030;1.822;2023-01-04T14:27:39;1.45;;;0.47;;
62543;SDS011;48597;49.030;1.822;2023-01-04T14:33:02;1.38;;;0.47;;
62543;SDS011;48597;49.030;1.822;2023-01-04T14:35:38;0.70;;;0.57;;
62543;SDS011;48597;49.030;1.822;2023-01-04T14:38:05;1.02;;;0.50;;
62543;SDS011;48597;49.030;1.822;2023-01-04T14:40:37;1.02;;;0.60;;
62543;SDS011;48597;49.030;1.822;2023-01-04T14:45:59;1.23;;;0.60;;
62543;SDS011;48597;49.030;1.822;2023-01-04T14:48:27;2.35;;;0.70;;
62543;SDS011;48597;49.030;1.822;2023-01-04T14:50:53;0.77;;;0.45;;
62543;SDS011;48597;49.030;1.822;2023-01-04T14:53:18;1.58;;;0.70;;
62543;SDS011;48597;49.030;1.822;2023-01-04T14:55:45;1.80;;;0.57;;
62543;SDS011;48597;49.030;1.822;2023-01-04T14:58:11;0.80;;;0.50;;
62543;SDS011;48597;49.030;1.822;2023-01-04T15:00:36;1.40;;;0.68;;
62543;SDS011;48597;49.030;1.822;2023-01-04T15:03:01;0.93;;;0.50;;
62543;SDS011;48597;49.030;1.822;2023-01-04T15:05:27;1.30;;;0.57;;
62543;SDS011;48597;49.030;1.822;2023-01-04T15:07:52;1.30;;;0.60;;
62543;SDS011;48597;49.030;1.822;2023-01-04T15:10:19;0.88;;;0.50;;
62543;SDS011;48597;49.030;1.822;2023-01-04T15:12:50;0.73;;;0.50;;
62543;SDS011;48597;49.030;1.822;2023-01-04T15:15:15;0.88;;;0.50;;
62543;SDS011;48597;49.030;1.822;2023-01-04T15:17:41;1.20;;;0.50;;
62543;SDS011;48597;49.030;1.822;2023-01-04T15:20:07;1.38;;;0.60;;
62543;SDS011;48597;49.030;1.822;2023-01-04T15:22:33;0.90;;;0.70;;
62543;SDS011;48597;49.030;1.822;2023-01-04T15:24:58;1.55;;;0.60;;
62543;SDS011;48597;49.030;1.822;2023-01-04T15:27:24;0.85;;;0.60;;
62543;SDS011;48597;49.030;1.822;2023-01-04T15:29:49;0.55;;;0.50;;
62543;SDS011;48597;49.030;1.822;2023-01-04T15:32:15;0.93;;;0.65;;
62543;SDS011;48597;49.030;1.822;2023-01-04T15:34:40;0.93;;;0.60;;
62543;SDS011;48597;49.030;1.822;2023-01-04T15:37:06;0.60;;;0.60;;
62543;SDS011;48597;49.030;1.822;2023-01-04T15:39:31;1.25;;;0.77;;
62543;SDS011;48597;49.030;1.822;2023-01-04T15:41:57;0.90;;;0.52;;
62543;SDS011;48597;49.030;1.822;2023-01-04T15:44:44;0.80;;;0.70;;
62543;SDS011;48597;49.030;1.822;2023-01-04T15:47:09;0.77;;;0.55;;
62543;SDS011;48597;49.030;1.822;2023-01-04T15:49:34;2.45;;;0.57;;
62543;SDS011;48597;49.030;1.822;2023-01-04T15:52:00;1.13;;;0.50;;
62543;SDS011;48597;49.030;1.822;2023-01-04T15:54:26;1.90;;;0.70;;
62543;SDS011;48597;49.030;1.822;2023-01-04T15:56:52;1.23;;;0.82;;
62543;SDS011;48597;49.030;1.822;2023-01-04T15:59:17;3.67;;;0.82;;
62543;SDS011;48597;49.030;1.822;2023-01-04T16:01:43;4.32;;;0.70;;
62543;SDS011;48597;49.030;1.822;2023-01-04T16:04:08;4.45;;;0.68;;
62543;SDS011;48597;49.030;1.822;2023-01-04T16:06:35;7.72;;;1.00;;
62543;SDS011;48597;49.030;1.822;2023-01-04T16:09:02;4.72;;;0.90;;
62543;SDS011;48597;49.030;1.822;2023-01-04T16:11:27;4.95;;;0.90;;
62543;SDS011;48597;49.030;1.822;2023-01-04T16:13:53;3.00;;;0.70;;
62543;SDS011;48597;49.030;1.822;2023-01-04T16:16:19;2.28;;;0.50;;
62543;SDS011;48597;49.030;1.822;2023-01-04T16:18:46;1.90;;;0.60;;
62543;SDS011;48597;49.030;1.822;2023-01-04T16:21:14;1.45;;;0.50;;
62543;SDS011;48597;49.030;1.822;2023-01-04T16:23:40;2.17;;;0.70;;
62543;SDS011;48597;49.030;1.822;2023-01-04T16:26:10;1.33;;;0.52;;
62543;SDS011;48597;49.030;1.822;2023-01-04T16:28:37;2.35;;;0.50;;
62543;SDS011;48597;49.030;1.822;2023-01-04T16:31:03;2.30;;;0.50;;
62543;SDS011;48597;49.030;1.822;2023-01-04T16:33:30;1.73;;;0.75;;
62543;SDS011;48597;49.030;1.822;2023-01-04T16:36:05;1.30;;;0.57;;
62543;SDS011;48597;49.030;1.822;2023-01-04T16:38:36;0.80;;;0.60;;
62543;SDS011;48597;49.030;1.822;2023-01-04T16:41:03;0.87;;;0.50;;
62543;SDS011;48597;49.030;1.822;2023-01-04T16:43:30;1.83;;;1.15;;
62543;SDS011;48597;49.030;1.822;2023-01-04T16:48:40;1.52;;;0.60;;
62543;SDS011;48597;49.030;1.822;2023-01-04T16:51:06;1.00;;;0.50;;
62543;SDS011;48597;49.030;1.822;2023-01-04T16:53:33;1.83;;;0.57;;
62543;SDS011;48597;49.030;1.822;2023-01-04T16:56:01;1.63;;;0.63;;
62543;SDS011;48597;49.030;1.822;2023-01-04T16:58:28;2.80;;;0.60;;
62543;SDS011;48597;49.030;1.822;2023-01-04T17:00:54;1.35;;;0.60;;
62543;SDS011;48597;49.030;1.822;2023-01-04T17:03:19;1.10;;;0.75;;
62543;SDS011;48597;49.030;1.822;2023-01-04T17:05:44;1.50;;;0.70;;
62543;SDS011;48597;49.030;1.822;2023-01-04T17:08:10;0.68;;;0.47;;
62543;SDS011;48597;49.030;1.822;2023-01-04T17:10:35;2.15;;;0.65;;
62543;SDS011;48597;49.030;1.822;2023-01-04T17:13:01;1.00;;;0.55;;
62543;SDS011;48597;49.030;1.822;2023-01-04T17:15:26;1.80;;;0.52;;